createdAt,value
2023-01-10T00:01:57.267Z,96395.19
2023-01-10T00:04:26.581Z,96401.53
2023-01-10T00:06:53.342Z,96400.88
2023-01-10T00:09:19.999Z,96407.25
2023-01-10T00:12:05.113Z,96404.06
2023-01-10T00:14:35.121Z,96405.03
2023-01-10T00:17:05.044Z,96407.25
2023-01-10T00:19:32.006Z,96404.09
2023-01-10T00:22:02.739Z,96405.84
2023-01-10T00:24:29.364Z,96402.03
2023-01-10T00:26:55.963Z,96413.94
2023-01-10T00:29:27.874Z,96409.66
2023-01-10T00:31:54.617Z,96411.56
2023-01-10T00:34:21.541Z,96408.84
2023-01-10T00:36:48.660Z,96410.28
2023-01-10T00:39:16.809Z,96417.59
2023-01-10T00:42:01.623Z,96423.00
2023-01-10T00:44:28.283Z,96417.59
2023-01-10T00:46:54.960Z,96427.13
2023-01-10T00:49:21.601Z,96430.66
2023-01-10T00:51:48.221Z,96435.38
2023-01-10T00:54:15.194Z,96444.59
2023-01-10T00:56:42.810Z,96449.34
2023-01-10T00:59:10.435Z,96444.59
2023-01-10T01:01:38.231Z,96454.94
2023-01-10T01:04:05.083Z,96458.91
2023-01-10T01:06:31.733Z,96455.88
2023-01-10T01:08:58.300Z,96461.28
2023-01-10T01:11:25.658Z,96470.19
2023-01-10T01:13:52.394Z,96470.50
2023-01-10T01:16:19.305Z,96469.38
2023-01-10T01:18:45.995Z,96470.19
2023-01-10T01:21:12.740Z,96474.47
2023-01-10T01:23:39.389Z,96465.09
2023-01-10T01:26:06.607Z,96473.19
2023-01-10T01:28:33.330Z,96467.97
2023-01-10T01:31:00.007Z,96475.13
2023-01-10T01:33:26.730Z,96482.09
2023-01-10T01:35:53.333Z,96479.41
2023-01-10T01:38:19.963Z,96481.47
2023-01-10T01:40:46.688Z,96487.34
2023-01-10T01:43:32.086Z,96484.66
2023-01-10T01:46:02.487Z,96485.13
2023-01-10T01:48:33.427Z,96495.28
2023-01-10T01:51:07.863Z,96490.34
2023-01-10T01:53:46.495Z,96488.00
2023-01-10T01:56:19.995Z,96486.56
2023-01-10T01:58:55.452Z,96491.00
2023-01-10T02:01:22.880Z,96493.25
2023-01-10T02:03:55.899Z,96486.06
2023-01-10T02:06:25.107Z,96497.19
2023-01-10T02:09:12.126Z,96501.16
2023-01-10T02:11:38.677Z,96489.41
2023-01-10T02:14:07.021Z,96499.28
2023-01-10T02:16:33.609Z,96500.38
2023-01-10T02:19:00.469Z,96508.47
2023-01-10T02:21:42.510Z,96504.66
2023-01-10T02:24:38.312Z,96496.56
2023-01-10T02:27:53.047Z,96494.50
2023-01-10T02:30:44.660Z,96506.06
2023-01-10T02:33:23.519Z,96507.03
2023-01-10T02:36:22.149Z,96514.50
2023-01-10T02:39:18.626Z,96514.50
2023-01-10T02:42:09.663Z,96518.47
2023-01-10T02:45:02.833Z,96521.97
2023-01-10T02:47:36.418Z,96520.06
2023-01-10T02:50:26.945Z,96537.34
2023-01-10T02:52:53.938Z,96530.56
2023-01-10T02:55:26.373Z,96533.25
2023-01-10T02:58:20.375Z,96510.66
2023-01-10T03:01:32.140Z,96550.69
2023-01-10T03:04:24.610Z,96552.28
2023-01-10T03:06:59.330Z,96558.00
2023-01-10T03:09:39.325Z,96561.47
2023-01-10T03:12:24.789Z,96560.69
2023-01-10T03:14:53.920Z,96567.47
2023-01-10T03:17:23.456Z,96568.91
2023-01-10T03:19:54.785Z,96570.81
2023-01-10T03:22:22.547Z,96580.97
2023-01-10T03:24:51.673Z,96585.88
2023-01-10T03:27:58.728Z,96599.38
2023-01-10T03:30:55.395Z,96577.13
2023-01-10T03:33:27.390Z,96594.47
2023-01-10T03:36:01.904Z,96597.81
2023-01-10T03:38:44.933Z,96597.78
2023-01-10T03:41:35.072Z,96597.28
2023-01-10T03:44:44.933Z,96599.50
2023-01-10T03:47:36.703Z,96603.31
2023-01-10T03:50:08.589Z,96612.81
2023-01-10T03:52:36.756Z,96613.28
2023-01-10T03:55:05.398Z,96614.41
2023-01-10T03:57:32.561Z,96620.75
2023-01-10T04:00:00.012Z,96631.38
2023-01-10T04:02:28.957Z,96629.28
2023-01-10T04:04:55.583Z,96635.19
2023-01-10T04:07:22.502Z,96638.53
2023-01-10T04:09:49.283Z,96644.25
2023-01-10T04:12:15.969Z,96639.47
2023-01-10T04:14:43.043Z,96639.59
2023-01-10T04:17:09.614Z,96648.66
2023-01-10T04:19:36.167Z,96659.13
2023-01-10T04:22:03.330Z,96662.66
2023-01-10T04:24:29.964Z,96663.44
2023-01-10T04:26:56.588Z,96663.25
2023-01-10T04:29:23.252Z,96668.97
2023-01-10T04:31:50.243Z,96673.88
2023-01-10T04:34:17.392Z,96680.06
2023-01-10T04:36:43.978Z,96672.94
2023-01-10T04:39:10.584Z,96670.88
2023-01-10T04:41:39.295Z,96677.81
2023-01-10T04:44:06.014Z,96676.53
2023-01-10T04:46:33.130Z,96675.72
2023-01-10T04:48:59.985Z,96686.34
2023-01-10T04:51:27.682Z,96684.13
2023-01-10T04:53:55.788Z,96685.72
2023-01-10T04:56:25.464Z,96691.13
2023-01-10T04:58:54.003Z,96689.84
2023-01-10T05:01:23.849Z,96691.84
2023-01-10T05:03:52.352Z,96690.41
2023-01-10T05:06:19.841Z,96688.25
2023-01-10T05:08:46.728Z,96700.03
2023-01-10T05:11:13.786Z,96709.22
2023-01-10T05:13:40.471Z,96709.16
2023-01-10T05:16:07.484Z,96717.25
2023-01-10T05:18:34.825Z,96729.78
2023-01-10T05:21:07.170Z,96723.63
2023-01-10T05:23:34.011Z,96733.41
2023-01-10T05:26:11.592Z,96733.03
2023-01-10T05:28:39.100Z,96741.59
2023-01-10T05:31:07.400Z,96714.41
2023-01-10T05:33:34.133Z,96753.69
2023-01-10T05:36:05.980Z,96754.78
2023-01-10T05:38:33.226Z,96755.22
2023-01-10T05:41:00.965Z,96753.81
2023-01-10T05:43:28.435Z,96756.41
2023-01-10T05:45:55.140Z,96774.19
2023-01-10T05:48:22.337Z,96787.56
2023-01-10T05:50:52.245Z,96791.53
2023-01-10T05:53:19.803Z,96788.16
2023-01-10T05:56:03.270Z,96801.31
2023-01-10T05:58:30.221Z,96783.69
2023-01-10T06:00:58.274Z,96789.75
2023-01-10T06:03:26.720Z,96793.41
2023-01-10T06:05:54.933Z,96806.09
2023-01-10T06:08:22.277Z,96800.22
2023-01-10T06:10:49.300Z,96805.44
2023-01-10T06:13:16.235Z,96804.16
2023-01-10T06:15:43.636Z,96808.22
2023-01-10T06:18:12.296Z,96806.94
2023-01-10T06:20:39.653Z,96789.09
2023-01-10T06:23:06.268Z,96813.00
2023-01-10T06:25:36.907Z,96819.28
2023-01-10T06:28:03.912Z,96818.81
2023-01-10T06:30:30.554Z,96838.84
2023-01-10T06:33:04.922Z,96822.47
2023-01-10T06:35:32.174Z,96841.72
2023-01-10T06:37:59.279Z,96835.25
2023-01-10T06:40:27.243Z,96847.63
2023-01-10T06:42:53.971Z,96844.44
2023-01-10T06:45:20.677Z,96843.75
2023-01-10T06:47:47.270Z,96851.41
2023-01-10T06:50:14.336Z,96842.34
2023-01-10T06:52:42.036Z,96863.81
2023-01-10T06:55:09.195Z,96843.66
2023-01-10T06:57:35.784Z,96872.38
2023-01-10T07:00:07.276Z,96884.13
2023-01-10T07:02:34.135Z,96880.66
2023-01-10T07:05:01.760Z,96878.75
2023-01-10T07:07:28.424Z,96881.44
2023-01-10T07:09:55.142Z,96884.63
2023-01-10T07:12:21.730Z,96881.66
2023-01-10T07:14:48.350Z,96881.34
2023-01-10T07:17:14.884Z,96891.53
2023-01-10T07:19:41.404Z,96886.91
2023-01-10T07:22:07.977Z,96893.72
2023-01-10T07:24:35.324Z,96881.16
2023-01-10T07:27:01.990Z,96886.75
2023-01-10T07:29:28.572Z,96885.13
2023-01-10T07:31:55.109Z,96877.38
2023-01-10T07:34:21.661Z,96887.34
2023-01-10T07:36:48.318Z,96888.75
2023-01-10T07:39:14.966Z,96892.72
2023-01-10T07:41:41.640Z,96888.75
2023-01-10T07:44:08.254Z,96897.53
2023-01-10T07:46:34.880Z,96896.25
2023-01-10T07:49:01.468Z,96892.13
2023-01-10T07:51:28.236Z,96904.50
2023-01-10T07:53:54.839Z,96904.69
2023-01-10T07:56:21.551Z,96899.44
2023-01-10T07:58:48.130Z,96906.28
2023-01-10T08:01:15.129Z,96908.91
2023-01-10T08:03:41.947Z,96910.38
2023-01-10T08:06:11.168Z,96923.75
2023-01-10T08:08:38.168Z,96904.69
2023-01-10T08:11:05.501Z,96909.16
2023-01-10T08:13:32.869Z,96889.75
2023-01-10T08:16:00.104Z,96923.84
2023-01-10T08:18:27.175Z,96923.84
2023-01-10T08:20:54.515Z,96929.97
2023-01-10T08:23:21.808Z,96932.66
2023-01-10T08:25:49.245Z,96938.06
2023-01-10T08:28:15.948Z,96937.06
2023-01-10T08:30:42.905Z,96926.28
2023-01-10T08:33:10.773Z,96949.94
2023-01-10T08:35:39.047Z,96961.50
2023-01-10T08:38:09.342Z,96962.31
2023-01-10T08:40:36.340Z,96958.72
2023-01-10T08:43:06.090Z,96963.78
2023-01-10T08:45:33.446Z,96962.78
2023-01-10T08:48:02.727Z,96953.22
2023-01-10T08:50:31.923Z,96963.44
2023-01-10T08:52:59.526Z,96979.88
2023-01-10T08:55:27.117Z,96950.53
2023-01-10T08:57:54.186Z,96967.81
2023-01-10T09:00:21.316Z,96979.59
2023-01-10T09:02:47.944Z,96982.91
2023-01-10T09:05:27.468Z,96991.78
2023-01-10T09:08:00.222Z,97000.00
2023-01-10T09:10:27.958Z,97008.19
2023-01-10T09:12:54.761Z,97020.56
2023-01-10T09:15:28.171Z,97019.75
2023-01-10T09:17:56.496Z,97031.34
2023-01-10T09:20:26.064Z,97041.22
2023-01-10T09:22:57.171Z,97046.63
2023-01-10T09:25:24.949Z,97035.47
2023-01-10T09:27:59.376Z,97038.16
2023-01-10T09:30:26.967Z,97034.34
2023-01-10T09:32:54.816Z,97038.94
2023-01-10T09:35:22.814Z,97038.16
2023-01-10T09:37:49.425Z,97040.22
2023-01-10T09:40:48.932Z,97048.22
2023-01-10T09:43:37.045Z,97048.53
2023-01-10T09:46:10.914Z,97047.94
2023-01-10T09:48:43.341Z,97049.69
2023-01-10T09:51:15.701Z,97045.22
2023-01-10T09:53:45.974Z,97045.09
2023-01-10T09:56:15.390Z,97064.09
2023-01-10T09:58:44.233Z,97077.88
2023-01-10T10:01:25.934Z,97068.69
2023-01-10T10:04:10.597Z,97075.88
2023-01-10T10:06:37.190Z,97080.75
2023-01-10T10:09:05.063Z,97072.16
2023-01-10T10:11:43.811Z,97077.88
2023-01-10T10:14:34.740Z,97083.88
2023-01-10T10:17:14.817Z,97088.38
2023-01-10T10:19:44.160Z,97083.00
2023-01-10T10:22:49.240Z,97086.97
2023-01-10T10:25:42.725Z,97101.28
2023-01-10T10:28:46.631Z,97094.09
2023-01-10T10:31:50.929Z,97102.09
2023-01-10T10:34:41.883Z,97103.47
2023-01-10T10:37:08.526Z,97105.88
2023-01-10T10:39:42.012Z,97104.28
2023-01-10T10:42:13.596Z,97110.34
2023-01-10T10:44:59.818Z,97119.38
2023-01-10T10:47:32.426Z,97125.34
2023-01-10T10:50:34.778Z,97132.63
2023-01-10T10:53:04.603Z,97128.25
2023-01-10T10:55:35.287Z,97128.94
2023-01-10T10:58:07.298Z,97114.47
2023-01-10T11:00:34.208Z,97128.47
2023-01-10T11:03:12.672Z,97130.03
2023-01-10T11:05:42.959Z,97123.56
2023-01-10T11:08:14.113Z,97133.47
2023-01-10T11:10:48.163Z,97126.16
2023-01-10T11:13:23.023Z,97127.06
2023-01-10T11:15:50.904Z,97123.56
2023-01-10T11:18:20.721Z,97137.25
2023-01-10T11:20:49.255Z,97133.06
2023-01-10T11:23:24.362Z,97145.94
2023-01-10T11:25:51.244Z,97151.47
2023-01-10T11:28:23.331Z,97139.16
2023-01-10T11:30:51.090Z,97154.66
2023-01-10T11:33:23.148Z,97155.84
2023-01-10T11:36:01.645Z,97161.53
2023-01-10T11:38:30.355Z,97153.53
2023-01-10T11:40:58.722Z,97171.25
2023-01-10T11:43:34.041Z,97177.44
2023-01-10T11:46:15.075Z,97179.72
2023-01-10T11:49:06.904Z,97177.53
2023-01-10T11:51:45.312Z,97188.63
2023-01-10T11:54:17.419Z,97187.81
2023-01-10T11:56:54.326Z,97189.44
2023-01-10T11:59:21.266Z,97193.94
2023-01-10T12:02:05.135Z,97202.03
2023-01-10T12:04:39.622Z,97201.50
2023-01-10T12:07:09.911Z,97207.94
2023-01-10T12:09:43.570Z,97209.59
2023-01-10T12:12:19.165Z,97208.81
2023-01-10T12:14:47.522Z,97203.22
2023-01-10T12:17:35.625Z,97225.22
2023-01-10T12:20:04.611Z,97220.13
2023-01-10T12:22:39.459Z,97228.41
2023-01-10T12:25:21.266Z,97210.81
2023-01-10T12:27:52.067Z,97233.31
2023-01-10T12:30:33.996Z,97242.50
2023-01-10T12:33:11.440Z,97237.91
2023-01-10T12:35:50.526Z,97237.09
2023-01-10T12:38:42.107Z,97219.00
2023-01-10T12:41:11.376Z,97251.91
2023-01-10T12:44:01.604Z,97259.19
2023-01-10T12:47:05.630Z,97253.53
2023-01-10T12:49:34.834Z,97267.50
2023-01-10T12:52:06.800Z,97275.31
2023-01-10T12:54:33.721Z,97276.41
2023-01-10T12:57:05.794Z,97278.28
2023-01-10T12:59:39.959Z,97275.91
2023-01-10T13:02:17.082Z,97281.28
2023-01-10T13:04:52.054Z,97285.41
2023-01-10T13:07:19.334Z,97289.78
2023-01-10T13:09:47.657Z,97284.88
2023-01-10T13:12:21.977Z,97288.38
2023-01-10T13:15:04.385Z,97290.28
2023-01-10T13:17:34.055Z,97298.59
2023-01-10T13:20:22.369Z,97299.59
2023-01-10T13:23:01.138Z,97292.69
2023-01-10T13:25:37.872Z,97311.19
2023-01-10T13:28:08.337Z,97306.38
2023-01-10T13:30:42.806Z,97307.78
2023-01-10T13:33:23.471Z,97314.56
2023-01-10T13:35:52.148Z,97315.34
2023-01-10T13:38:37.256Z,97319.38
2023-01-10T13:41:29.370Z,97322.47
2023-01-10T13:44:03.808Z,97325.16
2023-01-10T13:46:31.618Z,97328.34
2023-01-10T13:49:00.382Z,97329.44
2023-01-10T13:51:27.927Z,97331.66
2023-01-10T13:53:58.386Z,97333.53
2023-01-10T13:56:28.884Z,97330.25
2023-01-10T13:59:14.425Z,97325.94
2023-01-10T14:02:01.213Z,97347.47
2023-01-10T14:04:36.772Z,97345.34
2023-01-10T14:07:31.515Z,97344.53
2023-01-10T14:10:05.209Z,97339.00
2023-01-10T14:12:53.889Z,97346.75
2023-01-10T14:15:27.292Z,97347.31
2023-01-10T14:18:01.024Z,97341.41
2023-01-10T14:20:29.680Z,97345.28
2023-01-10T14:23:07.989Z,97364.09
2023-01-10T14:25:37.160Z,97363.59
2023-01-10T14:28:05.936Z,97357.88
2023-01-10T14:30:35.596Z,97363.59
2023-01-10T14:33:22.161Z,97364.03
2023-01-10T14:35:58.023Z,97361.91
2023-01-10T14:38:29.383Z,97368.59
2023-01-10T14:41:01.508Z,97371.69
2023-01-10T14:43:33.373Z,97387.81
2023-01-10T14:46:14.345Z,97392.69
2023-01-10T14:48:51.372Z,97396.78
2023-01-10T14:51:25.289Z,97396.78
2023-01-10T14:54:02.569Z,97398.66
2023-01-10T14:56:43.778Z,97395.16
2023-01-10T14:59:38.100Z,97397.63
2023-01-10T15:02:13.530Z,97399.22
2023-01-10T15:04:52.621Z,97373.56
2023-01-10T15:07:22.857Z,97399.31
2023-01-10T15:09:52.179Z,97411.84
2023-01-10T15:12:22.118Z,97407.13
2023-01-10T15:14:59.484Z,97407.13
2023-01-10T15:17:27.747Z,97415.72
2023-01-10T15:19:55.325Z,97411.13
2023-01-10T15:22:30.078Z,97420.28
2023-01-10T15:25:05.847Z,97413.81
2023-01-10T15:27:33.889Z,97408.13
2023-01-10T15:30:01.665Z,97412.41
2023-01-10T15:32:34.241Z,97413.50
2023-01-10T15:35:01.580Z,97410.53
2023-01-10T15:37:34.229Z,97410.31
2023-01-10T15:40:02.706Z,97413.06
2023-01-10T15:42:29.494Z,97423.56
2023-01-10T15:44:56.386Z,97414.69
2023-01-10T15:47:50.036Z,97417.09
2023-01-10T15:50:22.259Z,97421.97
2023-01-10T15:53:03.327Z,97430.91
2023-01-10T15:55:38.048Z,97443.00
2023-01-10T15:58:29.002Z,97434.66
2023-01-10T16:00:57.761Z,97437.34
2023-01-10T16:03:37.008Z,97430.19
2023-01-10T16:06:09.156Z,97452.66
2023-01-10T16:08:38.323Z,97449.97
2023-01-10T16:11:10.795Z,97449.97
2023-01-10T16:13:37.547Z,97454.06
2023-01-10T16:16:15.516Z,97462.56
2023-01-10T16:18:42.300Z,97454.84
2023-01-10T16:21:11.337Z,97477.88
2023-01-10T16:23:38.342Z,97451.88
2023-01-10T16:26:09.142Z,97471.69
2023-01-10T16:28:41.728Z,97475.78
2023-01-10T16:31:14.497Z,97480.09
2023-01-10T16:33:42.190Z,97456.22
2023-01-10T16:36:18.600Z,97473.09
2023-01-10T16:38:46.686Z,97468.53
2023-01-10T16:41:32.902Z,97486.28
2023-01-10T16:44:00.731Z,97500.81
2023-01-10T16:46:28.106Z,97490.28
2023-01-10T16:48:55.124Z,97494.06
2023-01-10T16:51:25.101Z,97500.06
2023-01-10T16:53:52.761Z,97510.03
2023-01-10T16:56:26.828Z,97513.56
2023-01-10T16:58:55.504Z,97508.94
2023-01-10T17:01:38.018Z,97531.56
2023-01-10T17:04:09.328Z,97543.16
2023-01-10T17:06:36.061Z,97535.66
2023-01-10T17:09:02.886Z,97550.72
2023-01-10T17:11:34.625Z,97559.34
2023-01-10T17:14:02.620Z,97564.16
2023-01-10T17:16:29.359Z,97566.06
2023-01-10T17:18:56.532Z,97568.47
2023-01-10T17:21:23.404Z,97567.44
2023-01-10T17:23:50.576Z,97569.59
2023-01-10T17:26:18.670Z,97566.91
2023-01-10T17:28:46.736Z,97577.69
2023-01-10T17:31:13.371Z,97570.75
2023-01-10T17:33:39.996Z,97590.38
2023-01-10T17:36:06.964Z,97587.16
2023-01-10T17:38:33.582Z,97593.88
2023-01-10T17:41:03.809Z,97590.91
2023-01-10T17:43:31.722Z,97597.09
2023-01-10T17:46:04.353Z,97596.56
2023-01-10T17:48:33.160Z,97593.59
2023-01-10T17:51:01.408Z,97599.22
2023-01-10T17:53:28.739Z,97601.13
2023-01-10T17:55:58.083Z,97596.88
2023-01-10T17:58:25.714Z,97608.16
2023-01-10T18:00:56.280Z,97602.78
2023-01-10T18:03:23.909Z,97605.78
2023-01-10T18:05:53.788Z,97607.97
2023-01-10T18:08:21.185Z,97605.50
2023-01-10T18:10:48.363Z,97596.91
2023-01-10T18:13:17.976Z,97607.72
2023-01-10T18:15:49.755Z,97610.13
2023-01-10T18:18:17.496Z,97605.53
2023-01-10T18:20:50.139Z,97610.94
2023-01-10T18:23:33.040Z,97596.72
2023-01-10T18:26:03.096Z,97611.50
2023-01-10T18:28:43.351Z,97606.09
2023-01-10T18:31:18.438Z,97594.53
2023-01-10T18:33:49.819Z,97602.03
2023-01-10T18:36:22.632Z,97599.13
2023-01-10T18:38:50.163Z,97604.22
2023-01-10T18:41:23.671Z,97605.00
2023-01-10T18:43:51.826Z,97605.00
2023-01-10T18:46:21.847Z,97603.13
2023-01-10T18:48:52.844Z,97598.88
2023-01-10T18:51:20.391Z,97612.34
2023-01-10T18:53:48.225Z,97615.34
2023-01-10T18:56:17.338Z,97613.16
2023-01-10T18:58:46.567Z,97619.66
2023-01-10T19:01:23.055Z,97625.03
2023-01-10T19:03:50.760Z,97628.25
2023-01-10T19:06:25.742Z,97623.97
2023-01-10T19:08:52.496Z,97624.22
2023-01-10T19:11:21.114Z,97616.13
2023-01-10T19:13:51.776Z,97622.56
2023-01-10T19:16:26.836Z,97622.81
2023-01-10T19:19:02.679Z,97630.38
2023-01-10T19:21:38.219Z,97614.63
2023-01-10T19:24:16.567Z,97631.56
2023-01-10T19:26:44.293Z,97636.63
2023-01-10T19:29:17.895Z,97642.84
2023-01-10T19:31:46.481Z,97641.00
2023-01-10T19:34:14.441Z,97653.56
2023-01-10T19:36:41.750Z,97644.16
2023-01-10T19:39:10.137Z,97643.63
2023-01-10T19:41:37.879Z,97636.63
2023-01-10T19:44:07.680Z,97640.66
2023-01-10T19:46:37.182Z,97642.84
2023-01-10T19:49:08.034Z,97653.06
2023-01-10T19:51:36.794Z,97653.34
2023-01-10T19:54:04.735Z,97656.84
2023-01-10T19:56:32.048Z,97642.53
2023-01-10T19:58:58.826Z,97654.72
2023-01-10T20:01:28.601Z,97658.47
2023-01-10T20:04:01.852Z,97663.56
2023-01-10T20:06:32.009Z,97664.34
2023-01-10T20:08:58.906Z,97648.28
2023-01-10T20:11:37.179Z,97667.63
2023-01-10T20:14:27.776Z,97666.81
2023-01-10T20:16:54.446Z,97666.59
2023-01-10T20:19:22.152Z,97678.97
2023-01-10T20:21:51.638Z,97673.84
2023-01-10T20:24:21.167Z,97689.25
2023-01-10T20:26:50.100Z,97689.81
2023-01-10T20:29:18.271Z,97686.06
2023-01-10T20:31:48.197Z,97682.00
2023-01-10T20:34:15.011Z,97681.44
2023-01-10T20:36:45.267Z,97693.56
2023-01-10T20:39:15.251Z,97663.19
2023-01-10T20:41:42.148Z,97688.94
2023-01-10T20:44:09.516Z,97698.94
2023-01-10T20:46:37.911Z,97701.13
2023-01-10T20:49:05.083Z,97709.75
2023-01-10T20:51:37.657Z,97704.59
2023-01-10T20:54:09.680Z,97700.06
2023-01-10T20:56:39.210Z,97706.03
2023-01-10T20:59:06.492Z,97700.63
2023-01-10T21:01:36.068Z,97710.84
2023-01-10T21:04:06.375Z,97710.13
2023-01-10T21:06:34.798Z,97704.25
2023-01-10T21:09:03.437Z,97710.44
2023-01-10T21:11:30.139Z,97706.66
2023-01-10T21:14:02.522Z,97696.97
2023-01-10T21:16:29.193Z,97710.38
2023-01-10T21:18:55.843Z,97704.22
2023-01-10T21:21:22.860Z,97710.94
2023-01-10T21:23:49.877Z,97692.09
2023-01-10T21:26:17.194Z,97698.03
2023-01-10T21:28:47.355Z,97711.78
2023-01-10T21:31:19.754Z,97715.50
2023-01-10T21:33:49.681Z,97700.19
2023-01-10T21:36:16.845Z,97716.66
2023-01-10T21:38:44.200Z,97724.78
2023-01-10T21:41:39.561Z,97704.38
2023-01-10T21:44:07.447Z,97699.06
2023-01-10T21:46:34.452Z,97717.69
2023-01-10T21:49:02.215Z,97715.03
2023-01-10T21:51:28.897Z,97723.13
2023-01-10T21:53:55.658Z,97732.59
2023-01-10T21:56:22.224Z,97734.81
2023-01-10T21:58:48.775Z,97748.03
2023-01-10T22:01:16.131Z,97744.00
2023-01-10T22:03:45.263Z,97748.03
2023-01-10T22:06:11.952Z,97749.34
2023-01-10T22:08:38.485Z,97759.03
2023-01-10T22:11:05.201Z,97751.75
2023-01-10T22:13:31.819Z,97747.69
2023-01-10T22:15:59.803Z,97739.34
2023-01-10T22:18:27.674Z,97750.06
2023-01-10T22:20:56.437Z,97747.66
2023-01-10T22:23:23.909Z,97744.44
2023-01-10T22:26:02.321Z,97746.03
2023-01-10T22:28:29.080Z,97739.28
2023-01-10T22:30:55.988Z,97741.66
2023-01-10T22:33:23.403Z,97731.44
2023-01-10T22:35:50.126Z,97737.59
2023-01-10T22:38:16.661Z,97733.81
2023-01-10T22:40:43.551Z,97734.38
2023-01-10T22:43:10.232Z,97731.97
2023-01-10T22:45:40.723Z,97731.94
2023-01-10T22:48:07.177Z,97735.97
2023-01-10T22:50:37.384Z,97733.81
2023-01-10T22:53:07.008Z,97734.88
2023-01-10T22:55:34.284Z,97731.13
2023-01-10T22:58:00.905Z,97740.50
2023-01-10T23:00:27.654Z,97736.47
2023-01-10T23:02:55.218Z,97739.16
2023-01-10T23:05:21.956Z,97739.19
2023-01-10T23:07:50.564Z,97745.41
2023-01-10T23:10:29.176Z,97731.72
2023-01-10T23:12:58.015Z,97746.75
2023-01-10T23:15:25.460Z,97729.28
2023-01-10T23:18:00.557Z,97733.34
2023-01-10T23:20:27.168Z,97744.63
2023-01-10T23:22:53.812Z,97739.25
2023-01-10T23:25:20.586Z,97727.38
2023-01-10T23:27:47.151Z,97736.78
2023-01-10T23:30:13.910Z,97727.38
2023-01-10T23:32:40.487Z,97736.25
2023-01-10T23:35:07.382Z,97727.88
2023-01-10T23:37:34.067Z,97721.94
2023-01-10T23:40:00.762Z,97737.88
2023-01-10T23:42:27.441Z,97730.31
2023-01-10T23:44:54.793Z,97715.56
2023-01-10T23:47:21.376Z,97731.94
2023-01-10T23:49:48.266Z,97718.47
2023-01-10T23:52:15.050Z,97717.69
2023-01-10T23:54:41.696Z,97717.16
2023-01-10T23:57:08.369Z,97726.56
2023-01-10T23:59:34.933Z,97721.97
